sensor_id;sensor_type;location;lat;lon;timestamp;temperature;humidity
36818;DHT22;22761;51.542;16.450;2022-10-23T00:01:40;13.51;77.54
36818;DHT22;22761;51.542;16.450;2022-10-23T00:04:19;13.53;77.17
36818;DHT22;22761;51.542;16.450;2022-10-23T00:06:44;13.55;77.06
36818;DHT22;22761;51.542;16.450;2022-10-23T00:09:14;13.56;77.03
36818;DHT22;22761;51.542;16.450;2022-10-23T00:11:44;13.60;77.51
36818;DHT22;22761;51.542;16.450;2022-10-23T00:14:16;13.60;77.47
36818;DHT22;22761;51.542;16.450;2022-10-23T00:16:43;13.62;77.32
36818;DHT22;22761;51.542;16.450;2022-10-23T00:19:12;13.60;77.04
36818;DHT22;22761;51.542;16.450;2022-10-23T00:21:39;13.62;77.20
36818;DHT22;22761;51.542;16.450;2022-10-23T00:24:07;13.59;77.78
36818;DHT22;22761;51.542;16.450;2022-10-23T00:26:35;13.59;77.92
36818;DHT22;22761;51.542;16.450;2022-10-23T00:29:04;13.58;77.25
36818;DHT22;22761;51.542;16.450;2022-10-23T00:31:31;13.58;77.11
36818;DHT22;22761;51.542;16.450;2022-10-23T00:34:00;13.59;77.21
36818;DHT22;22761;51.542;16.450;2022-10-23T00:36:27;13.59;77.74
36818;DHT22;22761;51.542;16.450;2022-10-23T00:38:56;13.56;78.30
36818;DHT22;22761;51.542;16.450;2022-10-23T00:41:27;13.56;78.16
36818;DHT22;22761;51.542;16.450;2022-10-23T00:46:50;13.58;77.17
36818;DHT22;22761;51.542;16.450;2022-10-23T00:49:17;13.56;76.40
36818;DHT22;22761;51.542;16.450;2022-10-23T00:51:50;13.51;76.01
36818;DHT22;22761;51.542;16.450;2022-10-23T00:54:22;13.46;75.33
36818;DHT22;22761;51.542;16.450;2022-10-23T00:56:56;13.43;75.67
36818;DHT22;22761;51.542;16.450;2022-10-23T00:59:23;13.38;74.98
36818;DHT22;22761;51.542;16.450;2022-10-23T01:01:51;13.32;74.85
36818;DHT22;22761;51.542;16.450;2022-10-23T01:04:19;13.24;74.48
36818;DHT22;22761;51.542;16.450;2022-10-23T01:07:27;13.21;74.45
36818;DHT22;22761;51.542;16.450;2022-10-23T01:10:09;13.08;74.63
36818;DHT22;22761;51.542;16.450;2022-10-23T01:12:59;13.07;74.49
36818;DHT22;22761;51.542;16.450;2022-10-23T01:20:51;12.90;74.76
36818;DHT22;22761;51.542;16.450;2022-10-23T01:23:59;12.84;75.47
36818;DHT22;22761;51.542;16.450;2022-10-23T01:27:08;12.79;76.53
36818;DHT22;22761;51.542;16.450;2022-10-23T01:29:52;12.76;76.29
36818;DHT22;22761;51.542;16.450;2022-10-23T01:35:35;12.75;77.76
36818;DHT22;22761;51.542;16.450;2022-10-23T01:40:57;12.75;77.57
36818;DHT22;22761;51.542;16.450;2022-10-23T01:43:34;12.76;77.33
36818;DHT22;22761;51.542;16.450;2022-10-23T01:46:04;12.76;77.12
36818;DHT22;22761;51.542;16.450;2022-10-23T01:48:34;12.80;77.15
36818;DHT22;22761;51.542;16.450;2022-10-23T01:51:06;12.80;77.05
36818;DHT22;22761;51.542;16.450;2022-10-23T01:53:38;12.78;77.29
36818;DHT22;22761;51.542;16.450;2022-10-23T01:56:12;12.78;76.82
36818;DHT22;22761;51.542;16.450;2022-10-23T01:58:44;12.76;77.28
36818;DHT22;22761;51.542;16.450;2022-10-23T02:01:14;12.75;76.93
36818;DHT22;22761;51.542;16.450;2022-10-23T02:03:46;12.70;76.93
36818;DHT22;22761;51.542;16.450;2022-10-23T02:06:14;12.66;77.03
36818;DHT22;22761;51.542;16.450;2022-10-23T02:08:41;12.68;76.76
36818;DHT22;22761;51.542;16.450;2022-10-23T02:11:13;12.68;76.69
36818;DHT22;22761;51.542;16.450;2022-10-23T02:14:02;12.68;76.38
36818;DHT22;22761;51.542;16.450;2022-10-23T02:16:50;12.65;76.44
36818;DHT22;22761;51.542;16.450;2022-10-23T02:22:27;12.59;76.29
36818;DHT22;22761;51.542;16.450;2022-10-23T02:27:41;12.52;76.69
36818;DHT22;22761;51.542;16.450;2022-10-23T02:30:12;12.52;78.26
36818;DHT22;22761;51.542;16.450;2022-10-23T02:32:46;12.52;77.63
36818;DHT22;22761;51.542;16.450;2022-10-23T02:35:19;12.58;77.45
36818;DHT22;22761;51.542;16.450;2022-10-23T02:37:58;12.58;77.03
36818;DHT22;22761;51.542;16.450;2022-10-23T02:40:39;12.61;76.90
36818;DHT22;22761;51.542;16.450;2022-10-23T02:43:31;12.61;76.62
36818;DHT22;22761;51.542;16.450;2022-10-23T02:46:15;12.65;77.09
36818;DHT22;22761;51.542;16.450;2022-10-23T02:48:54;12.68;77.23
36818;DHT22;22761;51.542;16.450;2022-10-23T02:51:26;12.70;77.09
36818;DHT22;22761;51.542;16.450;2022-10-23T02:54:07;12.72;76.86
36818;DHT22;22761;51.542;16.450;2022-10-23T02:56:46;12.72;76.92
36818;DHT22;22761;51.542;16.450;2022-10-23T02:59:44;12.75;77.05
36818;DHT22;22761;51.542;16.450;2022-10-23T03:02:27;12.75;77.01
36818;DHT22;22761;51.542;16.450;2022-10-23T03:04:53;12.76;77.04
36818;DHT22;22761;51.542;16.450;2022-10-23T03:07:20;12.76;76.65
36818;DHT22;22761;51.542;16.450;2022-10-23T03:09:48;12.73;76.86
36818;DHT22;22761;51.542;16.450;2022-10-23T03:12:15;12.70;76.93
36818;DHT22;22761;51.542;16.450;2022-10-23T03:14:42;12.66;76.47
36818;DHT22;22761;51.542;16.450;2022-10-23T03:17:09;12.66;76.55
36818;DHT22;22761;51.542;16.450;2022-10-23T03:19:36;12.63;75.90
36818;DHT22;22761;51.542;16.450;2022-10-23T03:22:04;12.58;76.50
36818;DHT22;22761;51.542;16.450;2022-10-23T03:24:31;12.53;76.46
36818;DHT22;22761;51.542;16.450;2022-10-23T03:26:58;12.51;75.80
36818;DHT22;22761;51.542;16.450;2022-10-23T03:29:27;12.48;77.03
36818;DHT22;22761;51.542;16.450;2022-10-23T03:31:54;12.44;76.82
36818;DHT22;22761;51.542;16.450;2022-10-23T03:34:22;12.42;76.77
36818;DHT22;22761;51.542;16.450;2022-10-23T03:36:49;12.40;76.74
36818;DHT22;22761;51.542;16.450;2022-10-23T03:39:17;12.38;76.73
36818;DHT22;22761;51.542;16.450;2022-10-23T03:41:45;12.38;77.21
36818;DHT22;22761;51.542;16.450;2022-10-23T03:44:14;12.40;77.26
36818;DHT22;22761;51.542;16.450;2022-10-23T03:46:43;12.38;77.12
36818;DHT22;22761;51.542;16.450;2022-10-23T03:49:10;12.35;77.04
36818;DHT22;22761;51.542;16.450;2022-10-23T03:51:37;12.35;77.41
36818;DHT22;22761;51.542;16.450;2022-10-23T03:54:07;12.34;77.11
36818;DHT22;22761;51.542;16.450;2022-10-23T03:56:35;12.35;77.16
36818;DHT22;22761;51.542;16.450;2022-10-23T03:59:02;12.37;77.02
36818;DHT22;22761;51.542;16.450;2022-10-23T04:01:29;12.34;76.96
36818;DHT22;22761;51.542;16.450;2022-10-23T04:03:57;12.33;77.28
36818;DHT22;22761;51.542;16.450;2022-10-23T04:06:24;12.31;76.95
36818;DHT22;22761;51.542;16.450;2022-10-23T04:08:53;12.31;77.10
36818;DHT22;22761;51.542;16.450;2022-10-23T04:11:20;12.33;76.75
36818;DHT22;22761;51.542;16.450;2022-10-23T04:13:48;12.34;77.00
36818;DHT22;22761;51.542;16.450;2022-10-23T04:16:16;12.33;76.25
36818;DHT22;22761;51.542;16.450;2022-10-23T04:18:44;12.30;76.64
36818;DHT22;22761;51.542;16.450;2022-10-23T04:21:12;12.27;76.76
36818;DHT22;22761;51.542;16.450;2022-10-23T04:23:39;12.25;76.81
36818;DHT22;22761;51.542;16.450;2022-10-23T04:26:07;12.23;77.24
36818;DHT22;22761;51.542;16.450;2022-10-23T04:28:35;12.17;77.36
36818;DHT22;22761;51.542;16.450;2022-10-23T04:31:02;12.17;77.16
36818;DHT22;22761;51.542;16.450;2022-10-23T04:33:29;12.16;77.83
36818;DHT22;22761;51.542;16.450;2022-10-23T04:35:56;12.17;77.24
36818;DHT22;22761;51.542;16.450;2022-10-23T04:38:23;12.20;76.53
36818;DHT22;22761;51.542;16.450;2022-10-23T04:40:51;12.20;76.21
36818;DHT22;22761;51.542;16.450;2022-10-23T04:43:21;12.13;76.36
36818;DHT22;22761;51.542;16.450;2022-10-23T04:45:49;12.10;76.64
36818;DHT22;22761;51.542;16.450;2022-10-23T04:48:16;12.14;76.27
36818;DHT22;22761;51.542;16.450;2022-10-23T04:50:56;12.14;76.22
36818;DHT22;22761;51.542;16.450;2022-10-23T04:53:41;12.13;76.15
36818;DHT22;22761;51.542;16.450;2022-10-23T04:56:26;12.13;76.35
36818;DHT22;22761;51.542;16.450;2022-10-23T04:58:57;12.12;76.73
36818;DHT22;22761;51.542;16.450;2022-10-23T05:01:24;12.14;76.44
36818;DHT22;22761;51.542;16.450;2022-10-23T05:03:51;12.14;76.04
36818;DHT22;22761;51.542;16.450;2022-10-23T05:06:19;12.16;75.76
36818;DHT22;22761;51.542;16.450;2022-10-23T05:08:48;12.14;75.93
36818;DHT22;22761;51.542;16.450;2022-10-23T05:11:18;12.13;76.02
36818;DHT22;22761;51.542;16.450;2022-10-23T05:13:46;12.12;75.52
36818;DHT22;22761;51.542;16.450;2022-10-23T05:16:44;12.12;75.67
36818;DHT22;22761;51.542;16.450;2022-10-23T05:19:09;12.12;75.68
36818;DHT22;22761;51.542;16.450;2022-10-23T05:21:38;12.10;75.47
36818;DHT22;22761;51.542;16.450;2022-10-23T05:24:06;12.08;75.49
36818;DHT22;22761;51.542;16.450;2022-10-23T05:26:34;12.08;75.33
36818;DHT22;22761;51.542;16.450;2022-10-23T05:29:02;12.10;75.30
36818;DHT22;22761;51.542;16.450;2022-10-23T05:31:31;12.07;75.41
36818;DHT22;22761;51.542;16.450;2022-10-23T05:34:01;12.04;75.82
36818;DHT22;22761;51.542;16.450;2022-10-23T05:36:29;12.07;75.27
36818;DHT22;22761;51.542;16.450;2022-10-23T05:38:57;12.06;75.37
36818;DHT22;22761;51.542;16.450;2022-10-23T05:41:25;12.06;75.21
36818;DHT22;22761;51.542;16.450;2022-10-23T05:43:54;12.04;75.30
36818;DHT22;22761;51.542;16.450;2022-10-23T05:46:32;12.04;75.86
36818;DHT22;22761;51.542;16.450;2022-10-23T05:49:11;12.03;75.87
36818;DHT22;22761;51.542;16.450;2022-10-23T05:51:57;12.00;75.74
36818;DHT22;22761;51.542;16.450;2022-10-23T05:54:26;12.01;76.28
36818;DHT22;22761;51.542;16.450;2022-10-23T05:56:55;12.06;76.04
36818;DHT22;22761;51.542;16.450;2022-10-23T05:59:24;12.03;76.01
36818;DHT22;22761;51.542;16.450;2022-10-23T06:02:05;12.06;76.64
36818;DHT22;22761;51.542;16.450;2022-10-23T06:04:37;12.10;76.01
36818;DHT22;22761;51.542;16.450;2022-10-23T06:07:24;12.12;75.83
36818;DHT22;22761;51.542;16.450;2022-10-23T06:09:52;12.13;76.04
36818;DHT22;22761;51.542;16.450;2022-10-23T06:12:21;12.14;76.05
36818;DHT22;22761;51.542;16.450;2022-10-23T06:14:49;12.19;75.85
36818;DHT22;22761;51.542;16.450;2022-10-23T06:17:17;12.19;76.41
36818;DHT22;22761;51.542;16.450;2022-10-23T06:19:45;12.24;77.18
36818;DHT22;22761;51.542;16.450;2022-10-23T06:22:14;12.27;77.45
36818;DHT22;22761;51.542;16.450;2022-10-23T06:24:47;12.33;77.22
36818;DHT22;22761;51.542;16.450;2022-10-23T06:27:16;12.38;77.69
36818;DHT22;22761;51.542;16.450;2022-10-23T06:29:44;12.44;77.70
36818;DHT22;22761;51.542;16.450;2022-10-23T06:32:12;12.51;77.67
36818;DHT22;22761;51.542;16.450;2022-10-23T06:34:39;12.58;77.62
36818;DHT22;22761;51.542;16.450;2022-10-23T06:37:07;12.65;77.73
36818;DHT22;22761;51.542;16.450;2022-10-23T06:39:36;12.73;77.98
36818;DHT22;22761;51.542;16.450;2022-10-23T06:42:16;12.78;78.14
36818;DHT22;22761;51.542;16.450;2022-10-23T06:44:56;12.86;78.02
36818;DHT22;22761;51.542;16.450;2022-10-23T06:47:42;12.92;78.15
36818;DHT22;22761;51.542;16.450;2022-10-23T06:50:22;12.99;78.12
36818;DHT22;22761;51.542;16.450;2022-10-23T06:52:52;13.03;78.19
36818;DHT22;22761;51.542;16.450;2022-10-23T06:55:21;13.02;77.73
36818;DHT22;22761;51.542;16.450;2022-10-23T06:57:49;13.02;78.45
36818;DHT22;22761;51.542;16.450;2022-10-23T07:00:17;13.06;78.71
36818;DHT22;22761;51.542;16.450;2022-10-23T07:02:52;13.04;78.64
36818;DHT22;22761;51.542;16.450;2022-10-23T07:05:19;13.14;78.69
36818;DHT22;22761;51.542;16.450;2022-10-23T07:07:47;13.20;78.75
36818;DHT22;22761;51.542;16.450;2022-10-23T07:10:16;13.28;78.75
36818;DHT22;22761;51.542;16.450;2022-10-23T07:12:45;13.34;78.76
36818;DHT22;22761;51.542;16.450;2022-10-23T07:15:22;13.38;79.01
36818;DHT22;22761;51.542;16.450;2022-10-23T07:17:49;13.43;79.09
36818;DHT22;22761;51.542;16.450;2022-10-23T07:20:17;13.52;79.15
36818;DHT22;22761;51.542;16.450;2022-10-23T07:22:54;13.65;79.27
36818;DHT22;22761;51.542;16.450;2022-10-23T07:25:27;13.75;79.17
36818;DHT22;22761;51.542;16.450;2022-10-23T07:27:55;13.83;79.16
36818;DHT22;22761;51.542;16.450;2022-10-23T07:30:23;13.93;79.18
36818;DHT22;22761;51.542;16.450;2022-10-23T07:32:52;14.08;79.20
36818;DHT22;22761;51.542;16.450;2022-10-23T07:35:39;14.27;78.85
36818;DHT22;22761;51.542;16.450;2022-10-23T07:38:08;14.36;78.67
36818;DHT22;22761;51.542;16.450;2022-10-23T07:40:37;14.45;78.46
36818;DHT22;22761;51.542;16.450;2022-10-23T07:43:06;14.56;78.33
36818;DHT22;22761;51.542;16.450;2022-10-23T07:45:35;14.65;77.90
36818;DHT22;22761;51.542;16.450;2022-10-23T07:48:04;14.76;77.93
36818;DHT22;22761;51.542;16.450;2022-10-23T07:50:35;14.84;77.88
36818;DHT22;22761;51.542;16.450;2022-10-23T07:53:02;14.97;77.68
36818;DHT22;22761;51.542;16.450;2022-10-23T07:55:32;15.03;77.61
36818;DHT22;22761;51.542;16.450;2022-10-23T07:58:01;15.11;77.44
36818;DHT22;22761;51.542;16.450;2022-10-23T08:00:40;15.22;77.64
36818;DHT22;22761;51.542;16.450;2022-10-23T08:03:09;15.32;77.26
36818;DHT22;22761;51.542;16.450;2022-10-23T08:05:37;15.41;77.63
36818;DHT22;22761;51.542;16.450;2022-10-23T08:08:05;15.49;77.10
36818;DHT22;22761;51.542;16.450;2022-10-23T08:10:32;15.53;77.29
36818;DHT22;22761;51.542;16.450;2022-10-23T08:13:00;15.60;77.17
36818;DHT22;22761;51.542;16.450;2022-10-23T08:15:48;15.72;77.04
36818;DHT22;22761;51.542;16.450;2022-10-23T08:18:18;15.78;76.78
36818;DHT22;22761;51.542;16.450;2022-10-23T08:20:47;15.83;77.09
36818;DHT22;22761;51.542;16.450;2022-10-23T08:23:17;15.85;76.99
36818;DHT22;22761;51.542;16.450;2022-10-23T08:25:45;15.90;76.86
36818;DHT22;22761;51.542;16.450;2022-10-23T08:28:13;15.98;76.30
36818;DHT22;22761;51.542;16.450;2022-10-23T08:30:43;16.01;76.30
36818;DHT22;22761;51.542;16.450;2022-10-23T08:33:11;16.11;76.61
36818;DHT22;22761;51.542;16.450;2022-10-23T08:35:38;16.22;76.99
36818;DHT22;22761;51.542;16.450;2022-10-23T08:38:06;16.35;77.05
36818;DHT22;22761;51.542;16.450;2022-10-23T08:40:36;16.49;76.66
36818;DHT22;22761;51.542;16.450;2022-10-23T08:43:18;16.63;76.92
36818;DHT22;22761;51.542;16.450;2022-10-23T08:45:48;16.78;76.45
36818;DHT22;22761;51.542;16.450;2022-10-23T08:48:29;16.95;76.40
36818;DHT22;22761;51.542;16.450;2022-10-23T08:56:42;17.40;75.43
36818;DHT22;22761;51.542;16.450;2022-10-23T09:04:53;17.90;73.45
36818;DHT22;22761;51.542;16.450;2022-10-23T09:10:43;18.19;73.34
36818;DHT22;22761;51.542;16.450;2022-10-23T09:16:24;18.52;72.96
36818;DHT22;22761;51.542;16.450;2022-10-23T09:18:49;18.70;71.66
36818;DHT22;22761;51.542;16.450;2022-10-23T09:21:17;18.82;71.11
36818;DHT22;22761;51.542;16.450;2022-10-23T09:23:45;19.01;70.58
36818;DHT22;22761;51.542;16.450;2022-10-23T09:26:15;19.16;70.20
36818;DHT22;22761;51.542;16.450;2022-10-23T09:28:49;19.29;70.39
36818;DHT22;22761;51.542;16.450;2022-10-23T09:31:18;19.46;69.25
36818;DHT22;22761;51.542;16.450;2022-10-23T09:33:59;19.64;68.74
36818;DHT22;22761;51.542;16.450;2022-10-23T09:36:28;19.81;68.55
36818;DHT22;22761;51.542;16.450;2022-10-23T09:38:58;19.97;67.90
36818;DHT22;22761;51.542;16.450;2022-10-23T09:41:36;20.08;68.27
36818;DHT22;22761;51.542;16.450;2022-10-23T09:44:25;20.29;68.53
36818;DHT22;22761;51.542;16.450;2022-10-23T09:49:34;20.91;66.13
36818;DHT22;22761;51.542;16.450;2022-10-23T09:54:54;21.46;63.85
36818;DHT22;22761;51.542;16.450;2022-10-23T09:57:41;21.74;62.62
36818;DHT22;22761;51.542;16.450;2022-10-23T10:00:20;21.94;62.80
36818;DHT22;22761;51.542;16.450;2022-10-23T10:05:36;22.23;62.17
36818;DHT22;22761;51.542;16.450;2022-10-23T10:16:57;22.89;60.21
36818;DHT22;22761;51.542;16.450;2022-10-23T10:19:57;23.06;59.41
36818;DHT22;22761;51.542;16.450;2022-10-23T10:34:16;22.82;59.54
36818;DHT22;22761;51.542;16.450;2022-10-23T10:37:18;22.74;60.48
36818;DHT22;22761;51.542;16.450;2022-10-23T10:39:46;22.75;58.57
36818;DHT22;22761;51.542;16.450;2022-10-23T10:45:31;22.85;61.08
36818;DHT22;22761;51.542;16.450;2022-10-23T10:51:07;23.06;59.33
36818;DHT22;22761;51.542;16.450;2022-10-23T10:56:33;23.03;60.35
36818;DHT22;22761;51.542;16.450;2022-10-23T10:59:13;23.13;59.46
36818;DHT22;22761;51.542;16.450;2022-10-23T11:02:04;23.16;60.35
36818;DHT22;22761;51.542;16.450;2022-10-23T11:04:50;23.29;59.87
36818;DHT22;22761;51.542;16.450;2022-10-23T11:07:28;23.36;58.87
36818;DHT22;22761;51.542;16.450;2022-10-23T11:09:57;23.38;59.39
36818;DHT22;22761;51.542;16.450;2022-10-23T11:12:27;23.47;58.87
36818;DHT22;22761;51.542;16.450;2022-10-23T11:14:56;23.53;59.32
36818;DHT22;22761;51.542;16.450;2022-10-23T11:17:33;23.61;57.86
36818;DHT22;22761;51.542;16.450;2022-10-23T11:20:29;23.78;57.21
36818;DHT22;22761;51.542;16.450;2022-10-23T11:23:12;23.95;55.91
36818;DHT22;22761;51.542;16.450;2022-10-23T11:26:19;24.05;55.86
36818;DHT22;22761;51.542;16.450;2022-10-23T11:28:57;24.21;55.32
36818;DHT22;22761;51.542;16.450;2022-10-23T11:31:49;24.20;54.46
36818;DHT22;22761;51.542;16.450;2022-10-23T11:34:38;24.23;55.01
36818;DHT22;22761;51.542;16.450;2022-10-23T11:37:06;24.28;54.46
36818;DHT22;22761;51.542;16.450;2022-10-23T11:39:37;24.34;54.28
36818;DHT22;22761;51.542;16.450;2022-10-23T11:42:27;24.39;54.57
36818;DHT22;22761;51.542;16.450;2022-10-23T11:44:44;24.40;53.63
36818;DHT22;22761;51.542;16.450;2022-10-23T11:47:35;24.32;54.98
36818;DHT22;22761;51.542;16.450;2022-10-23T11:50:15;24.28;55.20
36818;DHT22;22761;51.542;16.450;2022-10-23T11:53:04;24.21;55.01
36818;DHT22;22761;51.542;16.450;2022-10-23T11:55:31;24.16;53.85
36818;DHT22;22761;51.542;16.450;2022-10-23T12:00:48;24.19;53.46
36818;DHT22;22761;51.542;16.450;2022-10-23T12:03:19;24.23;55.11
36818;DHT22;22761;51.542;16.450;2022-10-23T12:05:44;24.40;54.15
36818;DHT22;22761;51.542;16.450;2022-10-23T12:08:24;24.51;53.69
36818;DHT22;22761;51.542;16.450;2022-10-23T12:10:52;24.60;53.45
36818;DHT22;22761;51.542;16.450;2022-10-23T12:16:07;24.60;53.55
36818;DHT22;22761;51.542;16.450;2022-10-23T12:18:52;24.53;53.32
36818;DHT22;22761;51.542;16.450;2022-10-23T12:21:24;24.28;53.48
36818;DHT22;22761;51.542;16.450;2022-10-23T12:29:42;24.03;54.62
36818;DHT22;22761;51.542;16.450;2022-10-23T12:35:45;24.05;52.62
36818;DHT22;22761;51.542;16.450;2022-10-23T12:38:25;23.88;54.07
36818;DHT22;22761;51.542;16.450;2022-10-23T12:41:16;23.69;53.26
36818;DHT22;22761;51.542;16.450;2022-10-23T12:43:58;23.62;53.61
36818;DHT22;22761;51.542;16.450;2022-10-23T12:49:18;23.68;54.52
36818;DHT22;22761;51.542;16.450;2022-10-23T12:51:58;23.80;53.80
36818;DHT22;22761;51.542;16.450;2022-10-23T12:54:26;23.92;53.39
36818;DHT22;22761;51.542;16.450;2022-10-23T12:56:54;24.08;53.80
36818;DHT22;22761;51.542;16.450;2022-10-23T12:59:37;24.19;52.67
36818;DHT22;22761;51.542;16.450;2022-10-23T13:02:30;24.21;51.96
36818;DHT22;22761;51.542;16.450;2022-10-23T13:04:57;24.28;52.55
36818;DHT22;22761;51.542;16.450;2022-10-23T13:07:28;24.39;51.85
36818;DHT22;22761;51.542;16.450;2022-10-23T13:09:58;24.48;52.29
36818;DHT22;22761;51.542;16.450;2022-10-23T13:12:35;24.57;50.75
36818;DHT22;22761;51.542;16.450;2022-10-23T13:20:27;24.65;51.39
36818;DHT22;22761;51.542;16.450;2022-10-23T13:23:08;24.70;50.79
36818;DHT22;22761;51.542;16.450;2022-10-23T13:25:32;24.77;50.55
36818;DHT22;22761;51.542;16.450;2022-10-23T13:28:11;24.71;50.93
36818;DHT22;22761;51.542;16.450;2022-10-23T13:30:42;24.61;50.78
36818;DHT22;22761;51.542;16.450;2022-10-23T13:33:25;24.43;50.89
36818;DHT22;22761;51.542;16.450;2022-10-23T13:38:42;23.87;52.17
36818;DHT22;22761;51.542;16.450;2022-10-23T13:41:14;23.58;52.49
36818;DHT22;22761;51.542;16.450;2022-10-23T13:43:43;23.36;53.16
36818;DHT22;22761;51.542;16.450;2022-10-23T13:46:23;23.19;52.91
36818;DHT22;22761;51.542;16.450;2022-10-23T13:48:52;22.92;53.91
36818;DHT22;22761;51.542;16.450;2022-10-23T13:51:22;22.76;55.00
36818;DHT22;22761;51.542;16.450;2022-10-23T13:53:51;22.58;54.92
36818;DHT22;22761;51.542;16.450;2022-10-23T13:56:25;22.43;55.80
36818;DHT22;22761;51.542;16.450;2022-10-23T13:58:51;22.29;55.99
36818;DHT22;22761;51.542;16.450;2022-10-23T14:01:25;22.06;56.54
36818;DHT22;22761;51.542;16.450;2022-10-23T14:03:55;21.88;57.44
36818;DHT22;22761;51.542;16.450;2022-10-23T14:06:23;21.65;58.16
36818;DHT22;22761;51.542;16.450;2022-10-23T14:08:50;21.44;58.63
36818;DHT22;22761;51.542;16.450;2022-10-23T14:11:19;21.32;59.20
36818;DHT22;22761;51.542;16.450;2022-10-23T14:13:47;21.15;59.52
36818;DHT22;22761;51.542;16.450;2022-10-23T14:16:17;20.99;60.16
36818;DHT22;22761;51.542;16.450;2022-10-23T14:18:44;20.85;58.74
36818;DHT22;22761;51.542;16.450;2022-10-23T14:21:15;20.74;60.80
36818;DHT22;22761;51.542;16.450;2022-10-23T14:23:43;20.60;61.75
36818;DHT22;22761;51.542;16.450;2022-10-23T14:26:13;20.54;62.10
36818;DHT22;22761;51.542;16.450;2022-10-23T14:28:42;20.43;62.86
36818;DHT22;22761;51.542;16.450;2022-10-23T14:31:14;20.48;63.86
36818;DHT22;22761;51.542;16.450;2022-10-23T14:33:43;20.74;62.83
36818;DHT22;22761;51.542;16.450;2022-10-23T14:36:11;20.96;62.32
36818;DHT22;22761;51.542;16.450;2022-10-23T14:38:38;21.10;61.78
36818;DHT22;22761;51.542;16.450;2022-10-23T14:41:11;21.23;63.39
36818;DHT22;22761;51.542;16.450;2022-10-23T14:43:39;21.33;63.23
36818;DHT22;22761;51.542;16.450;2022-10-23T14:46:14;21.39;61.08
36818;DHT22;22761;51.542;16.450;2022-10-23T14:48:43;21.39;62.69
36818;DHT22;22761;51.542;16.450;2022-10-23T14:51:26;21.36;63.38
36818;DHT22;22761;51.542;16.450;2022-10-23T14:53:56;21.30;63.41
36818;DHT22;22761;51.542;16.450;2022-10-23T14:56:26;21.24;63.62
36818;DHT22;22761;51.542;16.450;2022-10-23T14:58:53;21.19;63.57
36818;DHT22;22761;51.542;16.450;2022-10-23T15:01:20;21.12;63.91
36818;DHT22;22761;51.542;16.450;2022-10-23T15:03:47;21.03;64.05
36818;DHT22;22761;51.542;16.450;2022-10-23T15:06:16;20.92;64.03
36818;DHT22;22761;51.542;16.450;2022-10-23T15:08:44;20.81;64.31
36818;DHT22;22761;51.542;16.450;2022-10-23T15:11:12;20.68;64.16
36818;DHT22;22761;51.542;16.450;2022-10-23T15:13:39;20.57;64.24
36818;DHT22;22761;51.542;16.450;2022-10-23T15:16:09;20.46;64.43
36818;DHT22;22761;51.542;16.450;2022-10-23T15:18:37;20.33;64.34
36818;DHT22;22761;51.542;16.450;2022-10-23T15:21:06;20.17;64.73
36818;DHT22;22761;51.542;16.450;2022-10-23T15:23:39;20.05;64.91
36818;DHT22;22761;51.542;16.450;2022-10-23T15:26:14;19.92;65.28
36818;DHT22;22761;51.542;16.450;2022-10-23T15:28:38;19.82;65.83
36818;DHT22;22761;51.542;16.450;2022-10-23T15:33:58;19.56;66.12
36818;DHT22;22761;51.542;16.450;2022-10-23T15:36:29;19.43;66.20
36818;DHT22;22761;51.542;16.450;2022-10-23T15:38:57;19.35;66.40
36818;DHT22;22761;51.542;16.450;2022-10-23T15:41:32;19.21;67.24
36818;DHT22;22761;51.542;16.450;2022-10-23T15:43:59;19.05;67.07
36818;DHT22;22761;51.542;16.450;2022-10-23T15:46:28;18.91;66.97
36818;DHT22;22761;51.542;16.450;2022-10-23T15:48:55;18.80;68.18
36818;DHT22;22761;51.542;16.450;2022-10-23T15:51:23;18.68;67.82
36818;DHT22;22761;51.542;16.450;2022-10-23T15:53:51;18.57;67.60
36818;DHT22;22761;51.542;16.450;2022-10-23T15:56:18;18.52;67.64
36818;DHT22;22761;51.542;16.450;2022-10-23T15:58:46;18.39;67.72
36818;DHT22;22761;51.542;16.450;2022-10-23T16:01:14;18.28;67.83
36818;DHT22;22761;51.542;16.450;2022-10-23T16:03:41;18.15;68.01
36818;DHT22;22761;51.542;16.450;2022-10-23T16:06:11;18.04;68.34
36818;DHT22;22761;51.542;16.450;2022-10-23T16:08:40;17.95;68.50
36818;DHT22;22761;51.542;16.450;2022-10-23T16:11:17;17.83;68.52
36818;DHT22;22761;51.542;16.450;2022-10-23T16:13:46;17.70;69.50
36818;DHT22;22761;51.542;16.450;2022-10-23T16:16:15;17.64;70.19
36818;DHT22;22761;51.542;16.450;2022-10-23T16:18:43;17.58;70.47
36818;DHT22;22761;51.542;16.450;2022-10-23T16:21:21;17.53;69.97
36818;DHT22;22761;51.542;16.450;2022-10-23T16:23:47;17.45;70.32
36818;DHT22;22761;51.542;16.450;2022-10-23T16:26:17;17.42;69.82
36818;DHT22;22761;51.542;16.450;2022-10-23T16:28:45;17.33;70.02
36818;DHT22;22761;51.542;16.450;2022-10-23T16:31:17;17.26;70.06
36818;DHT22;22761;51.542;16.450;2022-10-23T16:33:47;17.19;70.66
36818;DHT22;22761;51.542;16.450;2022-10-23T16:36:17;17.15;71.15
36818;DHT22;22761;51.542;16.450;2022-10-23T16:39:07;17.02;70.39
36818;DHT22;22761;51.542;16.450;2022-10-23T16:41:53;16.97;70.42
36818;DHT22;22761;51.542;16.450;2022-10-23T16:44:23;16.87;70.29
36818;DHT22;22761;51.542;16.450;2022-10-23T16:46:58;16.83;70.46
36818;DHT22;22761;51.542;16.450;2022-10-23T16:49:25;16.75;70.39
36818;DHT22;22761;51.542;16.450;2022-10-23T16:51:53;16.70;70.25
36818;DHT22;22761;51.542;16.450;2022-10-23T16:54:20;16.63;70.43
36818;DHT22;22761;51.542;16.450;2022-10-23T16:56:49;16.57;70.67
36818;DHT22;22761;51.542;16.450;2022-10-23T16:59:17;16.50;70.49
36818;DHT22;22761;51.542;16.450;2022-10-23T17:01:44;16.42;70.69
36818;DHT22;22761;51.542;16.450;2022-10-23T17:04:13;16.35;70.75
36818;DHT22;22761;51.542;16.450;2022-10-23T17:06:40;16.29;70.87
36818;DHT22;22761;51.542;16.450;2022-10-23T17:09:08;16.22;70.86
36818;DHT22;22761;51.542;16.450;2022-10-23T17:11:39;16.17;71.31
36818;DHT22;22761;51.542;16.450;2022-10-23T17:14:14;16.12;71.41
36818;DHT22;22761;51.542;16.450;2022-10-23T17:16:49;16.11;71.42
36818;DHT22;22761;51.542;16.450;2022-10-23T17:19:20;16.02;71.59
36818;DHT22;22761;51.542;16.450;2022-10-23T17:21:53;16.00;71.51
36818;DHT22;22761;51.542;16.450;2022-10-23T17:24:21;15.94;71.00
36818;DHT22;22761;51.542;16.450;2022-10-23T17:26:50;15.91;73.08
36818;DHT22;22761;51.542;16.450;2022-10-23T17:29:19;15.90;74.25
36818;DHT22;22761;51.542;16.450;2022-10-23T17:31:49;15.88;75.21